Time;durP1;ratioP1;P1;durP2;ratioP2;P2;SDS_P1;SDS_P2;PMS_P1;PMS_P2;Temp;Humidity;BMP_temperature;BMP_pressure;BME280_temperature;BME280_humidity;BME280_pressure;Samples;Min_cycle;Max_cycle;Signal;HPM_P1;HPM_P2
2021/01/29 00:00:56;;;;;;;1.80;0.50;;;;;;;;;;4937674;29;20051;-72
2021/01/29 00:03:23;;;;;;;0.20;0.20;;;;;;;;;;4937112;29;20520;-72
2021/01/29 00:05:54;;;;;;;1.67;0.40;;;;;;;;;;4952720;29;20047;-72
2021/01/29 00:08:20;;;;;;;1.20;0.52;;;;;;;;;;4938332;29;20121;-72
2021/01/29 00:10:47;;;;;;;2.45;1.25;;;;;;;;;;4921087;29;20455;-72
2021/01/29 00:13:15;;;;;;;0.95;0.60;;;;;;;;;;4934088;29;20048;-72
2021/01/29 00:15:42;;;;;;;0.90;0.50;;;;;;;;;;4933412;29;20052;-72
2021/01/29 00:18:09;;;;;;;1.58;0.65;;;;;;;;;;4934440;29;20127;-72
2021/01/29 00:20:35;;;;;;;0.98;0.65;;;;;;;;;;4934835;29;20130;-72
2021/01/29 00:23:01;;;;;;;1.23;0.60;;;;;;;;;;4937084;29;20087;-71
2021/01/29 00:25:42;;;;;;;1.85;0.60;;;;;;;;;;4952730;29;20489;-71
2021/01/29 00:28:08;;;;;;;2.20;0.63;;;;;;;;;;4955485;28;20110;-72
2021/01/29 00:30:35;;;;;;;2.28;0.70;;;;;;;;;;4937348;29;20098;-72
2021/01/29 00:33:02;;;;;;;1.08;0.65;;;;;;;;;;4934483;29;20098;-72
2021/01/29 00:35:30;;;;;;;1.23;0.80;;;;;;;;;;4933187;29;20059;-72
2021/01/29 00:37:57;;;;;;;1.75;0.63;;;;;;;;;;4933972;29;20503;-72
2021/01/29 00:40:23;;;;;;;1.30;0.70;;;;;;;;;;4933885;29;20051;-72
2021/01/29 00:42:50;;;;;;;1.00;0.40;;;;;;;;;;4933662;29;20422;-72
2021/01/29 00:45:19;;;;;;;1.15;0.65;;;;;;;;;;4934251;29;20063;-72
2021/01/29 00:47:45;;;;;;;0.82;0.60;;;;;;;;;;4933853;29;20056;-72
2021/01/29 00:50:12;;;;;;;1.23;0.70;;;;;;;;;;4934899;29;20056;-71
2021/01/29 00:52:38;;;;;;;1.10;0.60;;;;;;;;;;4933482;29;20114;-71
2021/01/29 00:55:05;;;;;;;2.28;0.63;;;;;;;;;;4933335;29;20097;-71
2021/01/29 00:57:31;;;;;;;1.05;0.60;;;;;;;;;;4933501;29;20059;-71
2021/01/29 00:59:57;;;;;;;1.20;0.55;;;;;;;;;;4934654;29;20056;-71
2021/01/29 01:02:23;;;;;;;0.57;0.57;;;;;;;;;;4933630;29;20056;-71
2021/01/29 01:04:49;;;;;;;4.00;0.70;;;;;;;;;;4934576;29;20047;-72
2021/01/29 01:07:16;;;;;;;1.73;0.60;;;;;;;;;;4932667;29;20451;-72
2021/01/29 01:09:43;;;;;;;1.30;0.30;;;;;;;;;;4933628;29;20131;-72
2021/01/29 01:12:09;;;;;;;2.55;0.80;;;;;;;;;;4933296;29;20415;-72
2021/01/29 01:14:35;;;;;;;1.05;0.70;;;;;;;;;;4933004;29;20486;-71
2021/01/29 01:17:02;;;;;;;2.03;0.70;;;;;;;;;;4932547;29;20130;-71
2021/01/29 01:19:28;;;;;;;1.17;0.50;;;;;;;;;;4933472;29;20111;-71
2021/01/29 01:21:54;;;;;;;1.30;0.63;;;;;;;;;;4934458;29;20052;-72
2021/01/29 01:24:20;;;;;;;1.50;0.70;;;;;;;;;;4949469;29;20114;-71
2021/01/29 01:26:46;;;;;;;1.17;0.70;;;;;;;;;;4935842;29;20573;-72
2021/01/29 01:29:12;;;;;;;1.15;0.82;;;;;;;;;;4936335;29;20066;-72
2021/01/29 01:31:39;;;;;;;0.95;0.60;;;;;;;;;;4936371;29;20473;-72
2021/01/29 01:34:05;;;;;;;1.08;0.60;;;;;;;;;;4952158;29;20130;-72
2021/01/29 01:36:31;;;;;;;1.25;0.70;;;;;;;;;;4935828;29;20059;-71
2021/01/29 01:38:57;;;;;;;1.40;0.80;;;;;;;;;;4934683;29;20647;-72
2021/01/29 01:41:23;;;;;;;0.85;0.60;;;;;;;;;;4934451;29;20085;-72
2021/01/29 01:43:49;;;;;;;2.03;0.60;;;;;;;;;;4934362;29;20070;-72
2021/01/29 01:46:17;;;;;;;2.75;0.90;;;;;;;;;;4932591;29;20549;-72
2021/01/29 01:48:58;;;;;;;1.00;0.65;;;;;;;;;;4933306;29;20058;-72
2021/01/29 01:51:46;;;;;;;1.02;0.60;;;;;;;;;;4933166;29;20055;-72
2021/01/29 01:54:18;;;;;;;2.67;0.68;;;;;;;;;;4932843;29;20478;-72
2021/01/29 01:56:49;;;;;;;1.60;0.70;;;;;;;;;;4942325;29;20051;-72
2021/01/29 01:59:19;;;;;;;1.55;0.65;;;;;;;;;;4952309;29;20085;-72
2021/01/29 02:01:45;;;;;;;0.85;0.68;;;;;;;;;;4952558;29;20106;-72
2021/01/29 02:04:12;;;;;;;0.85;0.50;;;;;;;;;;4936160;29;20561;-72
2021/01/29 02:07:24;;;;;;;1.40;0.68;;;;;;;;;;4935567;29;20055;-72
2021/01/29 02:09:50;;;;;;;1.88;0.88;;;;;;;;;;4932677;29;20118;-71
2021/01/29 02:12:20;;;;;;;1.42;0.80;;;;;;;;;;4901697;29;20135;-72
2021/01/29 02:14:47;;;;;;;1.77;0.80;;;;;;;;;;4932716;29;20047;-72
2021/01/29 02:17:35;;;;;;;1.77;1.38;;;;;;;;;;4916613;29;20083;-72
2021/01/29 02:20:20;;;;;;;1.38;0.90;;;;;;;;;;4933003;29;20059;-72
2021/01/29 02:23:21;;;;;;;0.80;0.70;;;;;;;;;;4933873;29;20063;-71
2021/01/29 02:26:19;;;;;;;0.60;0.60;;;;;;;;;;4969053;28;20552;-71
2021/01/29 02:29:30;;;;;;;1.10;0.60;;;;;;;;;;4925151;29;20051;-71
2021/01/29 02:32:14;;;;;;;0.73;0.65;;;;;;;;;;4946059;28;20094;-71
2021/01/29 02:35:20;;;;;;;3.10;1.08;;;;;;;;;;4936907;29;20050;-71
2021/01/29 02:38:07;;;;;;;0.93;0.68;;;;;;;;;;4935859;29;20055;-71
2021/01/29 02:40:40;;;;;;;6.15;1.13;;;;;;;;;;4937172;29;20055;-71
2021/01/29 02:43:25;;;;;;;;;;;;;;;;;;4936475;29;20051;-71
2021/01/29 02:46:05;;;;;;;1.85;0.70;;;;;;;;;;4936099;29;19930;-71
2021/01/29 02:48:56;;;;;;;1.50;0.65;;;;;;;;;;4935676;29;20507;-71
2021/01/29 02:51:28;;;;;;;3.58;0.70;;;;;;;;;;4935767;29;20122;-71
2021/01/29 02:54:13;;;;;;;1.25;0.60;;;;;;;;;;4935302;29;20400;-71
2021/01/29 02:56:50;;;;;;;1.75;0.50;;;;;;;;;;4943130;29;20059;-71
2021/01/29 02:59:34;;;;;;;2.97;0.63;;;;;;;;;;4940196;29;20059;-71
2021/01/29 03:02:07;;;;;;;0.80;0.80;;;;;;;;;;4949037;29;20127;-72
2021/01/29 03:04:34;;;;;;;;;;;;;;;;;;4921116;29;20048;-72
2021/01/29 03:07:07;;;;;;;1.85;0.40;;;;;;;;;;4934829;29;19969;-72
2021/01/29 03:09:40;;;;;;;;;;;;;;;;;;4921022;29;20086;-71
2021/01/29 03:12:25;;;;;;;2.63;0.60;;;;;;;;;;4936493;29;19977;-71
2021/01/29 03:15:17;;;;;;;1.42;0.40;;;;;;;;;;4936365;29;20051;-72
2021/01/29 03:17:49;;;;;;;0.43;0.43;;;;;;;;;;4935384;29;20056;-71
2021/01/29 03:20:16;;;;;;;3.13;0.68;;;;;;;;;;4919749;29;20134;-71
2021/01/29 03:22:47;;;;;;;1.17;0.43;;;;;;;;;;4936213;29;20066;-71
2021/01/29 03:25:20;;;;;;;1.00;0.85;;;;;;;;;;4935355;29;20056;-71
2021/01/29 03:27:50;;;;;;;1.00;0.50;;;;;;;;;;4935919;29;20111;-71
2021/01/29 03:30:24;;;;;;;2.83;0.60;;;;;;;;;;4919634;29;20122;-71
2021/01/29 03:32:52;;;;;;;0.70;0.40;;;;;;;;;;4919906;29;20055;-71
2021/01/29 03:35:21;;;;;;;0.32;0.30;;;;;;;;;;4934489;29;20478;-71
2021/01/29 03:37:58;;;;;;;2.13;0.60;;;;;;;;;;4936087;29;20091;-71
2021/01/29 03:40:24;;;;;;;2.22;0.50;;;;;;;;;;4934886;29;20063;-72
2021/01/29 03:42:57;;;;;;;2.63;0.57;;;;;;;;;;4918951;29;20052;-72
2021/01/29 03:45:25;;;;;;;0.32;0.25;;;;;;;;;;4935419;29;20130;-72
2021/01/29 03:48:11;;;;;;;1.23;0.38;;;;;;;;;;4934598;29;20514;-71
2021/01/29 03:50:50;;;;;;;1.02;0.40;;;;;;;;;;4935190;29;20052;-71
2021/01/29 03:53:25;;;;;;;1.17;0.40;;;;;;;;;;4962797;23;20137;-74
2021/01/29 03:56:01;;;;;;;0.75;0.30;;;;;;;;;;4973391;28;20047;-74
2021/01/29 03:58:30;;;;;;;1.00;0.43;;;;;;;;;;4972872;28;20106;-75
2021/01/29 04:01:02;;;;;;;0.43;0.43;;;;;;;;;;4956779;28;20473;-74
2021/01/29 04:03:42;;;;;;;1.48;0.50;;;;;;;;;;4956991;28;20112;-74
2021/01/29 04:06:22;;;;;;;1.08;0.47;;;;;;;;;;4972500;28;20123;-74
2021/01/29 04:08:56;;;;;;;0.82;0.40;;;;;;;;;;4957066;28;20109;-74
2021/01/29 04:11:28;;;;;;;1.35;0.70;;;;;;;;;;4972834;28;20047;-74
2021/01/29 04:13:57;;;;;;;0.47;0.40;;;;;;;;;;4972037;28;20551;-74
2021/01/29 04:16:33;;;;;;;1.27;0.70;;;;;;;;;;4971794;28;20047;-74
2021/01/29 04:18:59;;;;;;;1.65;0.50;;;;;;;;;;4957582;28;20121;-74
2021/01/29 04:21:31;;;;;;;0.70;0.40;;;;;;;;;;4956432;28;20059;-73
2021/01/29 04:24:03;;;;;;;1.65;0.43;;;;;;;;;;4956853;28;20105;-74
2021/01/29 04:26:32;;;;;;;0.93;0.47;;;;;;;;;;4973000;28;20062;-74
2021/01/29 04:29:04;;;;;;;0.70;0.50;;;;;;;;;;4956492;28;20085;-74
2021/01/29 04:31:30;;;;;;;1.65;0.40;;;;;;;;;;4940854;28;20054;-74
2021/01/29 04:34:00;;;;;;;0.77;0.50;;;;;;;;;;4971927;28;20058;-74
2021/01/29 04:36:28;;;;;;;0.65;0.40;;;;;;;;;;4971754;28;20054;-74
2021/01/29 04:39:20;;;;;;;1.30;0.80;;;;;;;;;;4956096;28;20057;-74
2021/01/29 04:42:19;;;;;;;0.82;0.65;;;;;;;;;;4971538;28;20136;-74
2021/01/29 04:45:17;;;;;;;0.70;0.50;;;;;;;;;;4972079;28;20043;-73
2021/01/29 04:47:45;;;;;;;0.77;0.50;;;;;;;;;;4958805;28;20054;-74
2021/01/29 04:50:35;;;;;;;4.88;0.85;;;;;;;;;;4971552;28;20474;-74
2021/01/29 04:53:22;;;;;;;2.90;0.80;;;;;;;;;;4971543;28;20141;-74
2021/01/29 04:56:03;;;;;;;2.15;0.80;;;;;;;;;;4957403;28;20054;-74
2021/01/29 04:58:30;;;;;;;1.13;0.55;;;;;;;;;;4973095;28;20054;-74
2021/01/29 05:01:10;;;;;;;1.50;0.47;;;;;;;;;;4955721;28;20050;-74
2021/01/29 05:04:27;;;;;;;1.67;0.50;;;;;;;;;;4971933;28;20073;-75
2021/01/29 05:07:14;;;;;;;1.17;0.65;;;;;;;;;;4989177;28;20081;-74
2021/01/29 05:10:02;;;;;;;1.27;0.50;;;;;;;;;;4989899;28;20067;-75
2021/01/29 05:12:52;;;;;;;2.30;1.00;;;;;;;;;;4971280;28;20047;-75
2021/01/29 05:15:57;;;;;;;0.90;0.90;;;;;;;;;;4972117;28;20494;-74
2021/01/29 05:18:26;;;;;;;0.65;0.60;;;;;;;;;;4973094;28;20438;-74
2021/01/29 05:21:16;;;;;;;3.00;0.88;;;;;;;;;;4972595;28;20064;-74
2021/01/29 05:24:20;;;;;;;0.85;0.68;;;;;;;;;;4972309;28;20509;-75
2021/01/29 05:27:06;;;;;;;1.15;0.68;;;;;;;;;;4971986;28;20058;-74
2021/01/29 05:29:42;;;;;;;1.00;0.50;;;;;;;;;;4972802;28;20220;-75
2021/01/29 05:32:41;;;;;;;0.50;0.50;;;;;;;;;;4972792;28;20553;-74
2021/01/29 05:35:31;;;;;;;1.33;0.40;;;;;;;;;;4971017;28;20046;-74
2021/01/29 05:38:27;;;;;;;2.50;0.90;;;;;;;;;;4972703;28;20124;-74
2021/01/29 05:41:30;;;;;;;1.23;0.52;;;;;;;;;;4971141;28;20117;-74
2021/01/29 05:44:35;;;;;;;0.75;0.50;;;;;;;;;;4972626;28;20051;-74
2021/01/29 05:47:31;;;;;;;1.58;0.47;;;;;;;;;;4976625;28;20512;-75
2021/01/29 05:50:16;;;;;;;1.27;0.45;;;;;;;;;;4972367;28;20139;-74
2021/01/29 05:53:18;;;;;;;1.52;0.47;;;;;;;;;;4972449;28;20046;-75
2021/01/29 05:55:47;;;;;;;0.98;0.40;;;;;;;;;;4970512;28;20085;-74
2021/01/29 05:58:32;;;;;;;0.82;0.38;;;;;;;;;;4972578;28;20058;-75
2021/01/29 06:01:20;;;;;;;0.35;0.30;;;;;;;;;;4971193;28;20516;-74
2021/01/29 06:04:08;;;;;;;1.63;0.35;;;;;;;;;;4975846;28;20497;-75
2021/01/29 06:06:38;;;;;;;1.95;0.40;;;;;;;;;;4975430;28;20051;-74
2021/01/29 06:09:21;;;;;;;1.00;0.60;;;;;;;;;;4974668;28;20086;-74
2021/01/29 06:12:08;;;;;;;0.70;0.32;;;;;;;;;;4958817;28;20109;-75
2021/01/29 06:14:53;;;;;;;1.85;0.50;;;;;;;;;;4976011;28;20047;-75
2021/01/29 06:17:26;;;;;;;0.93;0.40;;;;;;;;;;4975546;28;20102;-74
2021/01/29 06:19:57;;;;;;;1.63;0.43;;;;;;;;;;4974418;28;20058;-74
2021/01/29 06:22:23;;;;;;;0.85;0.40;;;;;;;;;;4974835;28;20051;-74
2021/01/29 06:24:55;;;;;;;0.50;0.28;;;;;;;;;;4975847;28;20051;-74
2021/01/29 06:28:01;;;;;;;0.55;0.38;;;;;;;;;;4975238;28;20473;-75
2021/01/29 06:30:52;;;;;;;0.98;0.30;;;;;;;;;;4974613;28;20105;-75
2021/01/29 06:33:55;;;;;;;1.08;0.25;;;;;;;;;;4975765;28;20051;-75
2021/01/29 06:36:28;;;;;;;0.20;0.20;;;;;;;;;;4975105;28;20113;-75
2021/01/29 06:38:56;;;;;;;;;;;;;;;;;;4974935;28;20050;-74
2021/01/29 06:41:43;;;;;;;0.20;0.20;;;;;;;;;;4974501;28;19948;-75
2021/01/29 06:44:27;;;;;;;0.20;0.20;;;;;;;;;;4974655;28;20054;-74
2021/01/29 06:47:11;;;;;;;0.20;0.20;;;;;;;;;;4974790;28;20137;-74
2021/01/29 06:49:53;;;;;;;0.13;0.10;;;;;;;;;;4975333;28;20050;-74
2021/01/29 06:53:06;;;;;;;2.33;0.52;;;;;;;;;;4975269;28;20521;-75
2021/01/29 06:55:52;;;;;;;1.52;0.80;;;;;;;;;;4991400;28;20058;-74
2021/01/29 06:58:56;;;;;;;1.33;0.80;;;;;;;;;;4960646;28;20054;-74
2021/01/29 07:01:26;;;;;;;0.55;0.38;;;;;;;;;;4976501;28;20047;-74
2021/01/29 07:04:26;;;;;;;0.63;0.25;;;;;;;;;;4974153;28;20111;-74
2021/01/29 07:07:04;;;;;;;0.30;0.22;;;;;;;;;;4974763;28;20055;-73
2021/01/29 07:09:52;;;;;;;0.52;0.22;;;;;;;;;;4974089;28;20074;-75
2021/01/29 07:12:35;;;;;;;0.60;0.30;;;;;;;;;;4974777;28;20078;-74
2021/01/29 07:15:09;;;;;;;2.47;0.52;;;;;;;;;;4973655;28;20577;-73
2021/01/29 07:17:41;;;;;;;0.32;0.32;;;;;;;;;;4958623;28;20050;-73
2021/01/29 07:20:20;;;;;;;0.68;0.30;;;;;;;;;;4975120;28;20155;-74
2021/01/29 07:22:45;;;;;;;1.85;0.30;;;;;;;;;;4975517;28;20109;-75
2021/01/29 07:25:34;;;;;;;1.38;0.50;;;;;;;;;;4974544;28;20046;-74
2021/01/29 07:28:34;;;;;;;0.55;0.50;;;;;;;;;;4958151;28;20395;-74
2021/01/29 07:31:13;;;;;;;1.27;0.98;;;;;;;;;;4975295;28;20051;-74
2021/01/29 07:33:52;;;;;;;3.65;1.98;;;;;;;;;;4974460;28;20474;-73
2021/01/29 07:36:52;;;;;;;2.22;1.63;;;;;;;;;;4954608;29;20130;-72
2021/01/29 07:39:39;;;;;;;0.32;0.25;;;;;;;;;;4951385;28;20425;-69
2021/01/29 07:42:19;;;;;;;0.65;0.40;;;;;;;;;;4972443;28;20440;-73
2021/01/29 07:45:08;;;;;;;0.85;0.35;;;;;;;;;;4974575;28;20054;-73
2021/01/29 07:47:47;;;;;;;0.40;0.40;;;;;;;;;;4977622;28;20132;-72
2021/01/29 07:50:30;;;;;;;1.77;0.32;;;;;;;;;;4982963;28;20106;-71
2021/01/29 07:53:15;;;;;;;0.32;0.22;;;;;;;;;;4978228;28;20062;-73
2021/01/29 07:56:03;;;;;;;0.38;0.25;;;;;;;;;;4964999;28;20128;-73
2021/01/29 07:58:36;;;;;;;0.52;0.17;;;;;;;;;;4979840;28;20050;-73
2021/01/29 08:01:08;;;;;;;0.22;0.10;;;;;;;;;;4982620;28;20184;-72
2021/01/29 08:03:34;;;;;;;0.60;0.45;;;;;;;;;;4977487;28;20051;-72
2021/01/29 08:06:12;;;;;;;2.17;0.55;;;;;;;;;;4982190;28;20081;-72
2021/01/29 08:09:04;;;;;;;0.47;0.43;;;;;;;;;;4963854;28;20043;-73
2021/01/29 08:11:36;;;;;;;1.85;0.40;;;;;;;;;;4979385;28;20099;-73
2021/01/29 08:14:49;;;;;;;1.08;0.30;;;;;;;;;;4980306;28;20588;-73
2021/01/29 08:17:44;;;;;;;0.73;0.38;;;;;;;;;;4961041;28;20509;-73
2021/01/29 08:20:58;;;;;;;1.10;0.17;;;;;;;;;;4977173;28;20055;-73
2021/01/29 08:23:54;;;;;;;0.95;0.40;;;;;;;;;;4951190;28;20623;-74
2021/01/29 08:26:59;;;;;;;0.40;0.22;;;;;;;;;;4963570;28;20046;-69
2021/01/29 08:29:45;;;;;;;0.95;0.40;;;;;;;;;;4982018;28;20509;-72
2021/01/29 08:32:36;;;;;;;1.45;0.25;;;;;;;;;;4980233;28;20126;-72
2021/01/29 08:35:57;;;;;;;1.48;0.93;;;;;;;;;;4977868;28;20051;-72
2021/01/29 08:38:41;;;;;;;1.33;0.93;;;;;;;;;;4973705;28;20039;-71
2021/01/29 08:41:45;;;;;;;1.48;0.50;;;;;;;;;;4994671;28;20395;-71
2021/01/29 08:44:30;;;;;;;0.88;0.50;;;;;;;;;;4980243;28;20047;-70
2021/01/29 08:47:38;;;;;;;3.10;0.50;;;;;;;;;;4981011;28;20384;-71
2021/01/29 08:50:26;;;;;;;4.03;0.40;;;;;;;;;;4975494;28;20047;-73
2021/01/29 08:53:06;;;;;;;0.88;0.77;;;;;;;;;;4980071;28;20456;-76
2021/01/29 08:55:40;;;;;;;0.73;0.50;;;;;;;;;;4978977;28;20038;-75
2021/01/29 08:58:07;;;;;;;0.68;0.50;;;;;;;;;;4981183;28;20089;-75
2021/01/29 09:00:35;;;;;;;1.27;0.43;;;;;;;;;;4980627;28;20125;-72
2021/01/29 09:03:15;;;;;;;1.85;0.80;;;;;;;;;;4972338;28;20054;-77
2021/01/29 09:05:43;;;;;;;0.20;0.20;;;;;;;;;;4994800;28;20054;-76
2021/01/29 09:08:13;;;;;;;1.90;0.80;;;;;;;;;;4986047;28;20042;-75
2021/01/29 09:11:01;;;;;;;2.70;0.50;;;;;;;;;;4990798;28;20096;-77
2021/01/29 09:13:28;;;;;;;0.32;0.30;;;;;;;;;;5010755;28;20046;-79
2021/01/29 09:16:08;;;;;;;1.92;0.50;;;;;;;;;;4991367;28;20046;-77
2021/01/29 09:18:41;;;;;;;0.73;0.30;;;;;;;;;;4997565;28;20440;-77
2021/01/29 09:21:11;;;;;;;0.88;0.30;;;;;;;;;;4981707;28;20046;-77
2021/01/29 09:23:47;;;;;;;2.92;0.60;;;;;;;;;;5013887;28;20050;-76
2021/01/29 09:26:45;;;;;;;1.40;0.45;;;;;;;;;;4998612;28;20061;-78
2021/01/29 09:29:28;;;;;;;2.33;0.50;;;;;;;;;;5014499;28;20085;-79
2021/01/29 09:31:58;;;;;;;2.45;0.70;;;;;;;;;;4987153;28;20444;-79
2021/01/29 09:34:29;;;;;;;1.88;0.60;;;;;;;;;;5015681;28;20037;-79
2021/01/29 09:37:00;;;;;;;2.10;0.70;;;;;;;;;;5000558;28;20050;-79
2021/01/29 09:39:57;;;;;;;2.33;0.80;;;;;;;;;;4996544;28;20525;-79
2021/01/29 09:42:47;;;;;;;2.55;0.77;;;;;;;;;;4988478;28;20054;-79
2021/01/29 09:45:19;;;;;;;6.15;0.80;;;;;;;;;;5013018;28;20120;-78
2021/01/29 09:47:46;;;;;;;2.40;0.67;;;;;;;;;;5003573;28;20054;-78
2021/01/29 09:50:22;;;;;;;2.90;0.70;;;;;;;;;;5018031;28;20049;-78
2021/01/29 09:52:59;;;;;;;2.55;0.60;;;;;;;;;;5001967;28;20060;-77
2021/01/29 09:55:33;;;;;;;1.80;0.75;;;;;;;;;;5015662;28;20097;-76
2021/01/29 09:58:10;;;;;;;1.67;0.50;;;;;;;;;;5014173;28;20174;-76
2021/01/29 10:00:42;;;;;;;2.88;0.70;;;;;;;;;;4999412;28;20053;-75
2021/01/29 10:03:25;;;;;;;4.45;1.00;;;;;;;;;;4997702;28;20492;-75
2021/01/29 10:06:11;;;;;;;2.78;0.50;;;;;;;;;;4997773;28;20105;-76
2021/01/29 10:08:42;;;;;;;2.60;0.90;;;;;;;;;;5014093;28;20053;-75
2021/01/29 10:11:18;;;;;;;3.63;0.65;;;;;;;;;;4997953;28;20056;-76
2021/01/29 10:13:47;;;;;;;6.90;1.38;;;;;;;;;;4997508;28;20497;-75
2021/01/29 10:16:40;;;;;;;6.63;1.25;;;;;;;;;;5013193;28;20050;-76
2021/01/29 10:19:28;;;;;;;1.77;0.70;;;;;;;;;;5004807;28;20047;-76
2021/01/29 10:21:58;;;;;;;8.98;1.42;;;;;;;;;;5012188;28;20308;-77
2021/01/29 10:24:47;;;;;;;4.35;1.13;;;;;;;;;;5013801;28;20050;-76
2021/01/29 10:27:40;;;;;;;2.88;0.60;;;;;;;;;;5001330;28;20050;-76
2021/01/29 10:30:11;;;;;;;4.38;0.90;;;;;;;;;;5003833;28;20135;-74
2021/01/29 10:32:37;;;;;;;5.90;1.00;;;;;;;;;;5005008;28;20046;-74
2021/01/29 10:35:14;;;;;;;3.45;0.80;;;;;;;;;;4985863;28;20080;-74
2021/01/29 10:37:46;;;;;;;4.85;1.00;;;;;;;;;;4981468;28;20100;-76
2021/01/29 10:40:17;;;;;;;3.70;0.68;;;;;;;;;;5012205;28;20084;-74
2021/01/29 10:43:05;;;;;;;3.63;0.77;;;;;;;;;;4985455;28;20397;-69
2021/01/29 10:45:39;;;;;;;5.25;0.80;;;;;;;;;;4970741;28;20093;-70
2021/01/29 10:48:24;;;;;;;5.57;0.90;;;;;;;;;;5009814;28;20053;-71
2021/01/29 10:51:13;;;;;;;3.03;1.00;;;;;;;;;;5010303;28;20142;-69
2021/01/29 10:53:39;;;;;;;5.30;0.93;;;;;;;;;;5017804;28;20077;-71
2021/01/29 10:56:14;;;;;;;4.53;1.08;;;;;;;;;;4993813;28;20049;-72
2021/01/29 10:59:05;;;;;;;4.63;1.05;;;;;;;;;;4988879;28;20085;-71
2021/01/29 11:01:36;;;;;;;2.92;0.73;;;;;;;;;;4995045;28;20049;-69
2021/01/29 11:04:06;;;;;;;5.80;0.73;;;;;;;;;;4993058;28;20050;-71
2021/01/29 11:06:45;;;;;;;6.90;1.10;;;;;;;;;;5003283;28;20050;-70
2021/01/29 11:09:36;;;;;;;5.15;1.75;;;;;;;;;;4984745;28;20524;-70
2021/01/29 11:12:09;;;;;;;4.30;1.13;;;;;;;;;;5008862;28;20124;-70
2021/01/29 11:14:40;;;;;;;3.35;0.90;;;;;;;;;;4985252;28;20046;-69
2021/01/29 11:17:18;;;;;;;6.70;0.85;;;;;;;;;;4993593;28;20108;-69
2021/01/29 11:19:46;;;;;;;5.53;0.93;;;;;;;;;;5009599;28;20046;-69
2021/01/29 11:22:33;;;;;;;5.60;0.98;;;;;;;;;;5010660;28;20058;-69
2021/01/29 11:24:59;;;;;;;;;;;;;;;;;;5009891;28;20409;-69
2021/01/29 11:27:38;;;;;;;2.40;0.85;;;;;;;;;;5010183;28;19972;-68
2021/01/29 11:30:06;;;;;;;7.07;1.33;;;;;;;;;;5009501;28;20538;-68
2021/01/29 11:32:34;;;;;;;4.40;0.98;;;;;;;;;;5007821;28;20046;-69
2021/01/29 11:35:13;;;;;;;5.65;1.45;;;;;;;;;;5008579;28;20104;-68
2021/01/29 11:38:11;;;;;;;6.20;1.40;;;;;;;;;;5010222;28;20049;-73
2021/01/29 11:41:01;;;;;;;3.75;1.10;;;;;;;;;;4993134;28;20061;-72
2021/01/29 11:43:52;;;;;;;9.43;1.60;;;;;;;;;;5007230;28;20041;-71
2021/01/29 11:46:35;;;;;;;7.88;2.17;;;;;;;;;;5009699;28;20054;-68
2021/01/29 11:49:01;;;;;;;4.18;0.88;;;;;;;;;;5009041;28;20046;-70
2021/01/29 11:51:51;;;;;;;6.03;0.82;;;;;;;;;;5010090;28;20177;-71
2021/01/29 11:54:26;;;;;;;3.33;0.90;;;;;;;;;;5008856;28;20402;-71
2021/01/29 11:57:02;;;;;;;2.83;0.63;;;;;;;;;;5008060;28;20053;-70
2021/01/29 11:59:50;;;;;;;2.85;0.80;;;;;;;;;;5001181;28;20046;-70
2021/01/29 12:02:33;;;;;;;2.13;0.60;;;;;;;;;;5009919;28;20061;-70
2021/01/29 12:05:31;;;;;;;3.40;0.60;;;;;;;;;;4994048;28;20176;-71
2021/01/29 12:08:17;;;;;;;2.28;1.00;;;;;;;;;;5006648;28;20056;-71
2021/01/29 12:11:04;;;;;;;6.70;0.90;;;;;;;;;;5009466;28;20054;-72
2021/01/29 12:14:11;;;;;;;2.28;0.65;;;;;;;;;;5008944;28;20111;-72
2021/01/29 12:16:37;;;;;;;3.33;1.15;;;;;;;;;;5006554;28;20050;-70
2021/01/29 12:19:05;;;;;;;2.33;0.73;;;;;;;;;;5008909;28;20045;-69
2021/01/29 12:22:20;;;;;;;3.03;0.73;;;;;;;;;;4972340;28;20128;-71
2021/01/29 12:24:51;;;;;;;;;;;;;;;;;;5036127;28;20440;-72
2021/01/29 12:27:24;;;;;;;7.35;1.58;;;;;;;;;;5005526;28;20016;-71
2021/01/29 12:30:13;;;;;;;8.05;0.90;;;;;;;;;;4989975;28;20054;-71
2021/01/29 12:33:07;;;;;;;6.60;0.82;;;;;;;;;;4991557;28;20054;-70
2021/01/29 12:35:53;;;;;;;5.55;0.90;;;;;;;;;;4992572;28;20041;-71
2021/01/29 12:38:48;;;;;;;3.13;0.90;;;;;;;;;;5008378;28;20085;-71
2021/01/29 12:41:24;;;;;;;5.30;1.00;;;;;;;;;;5000988;28;20347;-71
2021/01/29 12:44:22;;;;;;;4.00;0.80;;;;;;;;;;5005408;28;20057;-70
2021/01/29 12:46:56;;;;;;;3.88;0.82;;;;;;;;;;5006243;28;20069;-71
2021/01/29 12:50:00;;;;;;;5.93;1.15;;;;;;;;;;5008413;28;20054;-71
2021/01/29 12:52:38;;;;;;;;;;;;;;;;;;5001601;28;20046;-74
2021/01/29 12:55:24;;;;;;;5.00;1.10;;;;;;;;;;5003173;28;19921;-74
2021/01/29 12:58:03;;;;;;;4.93;1.85;;;;;;;;;;4985661;28;20420;-75
2021/01/29 13:00:39;;;;;;;2.92;0.80;;;;;;;;;;5010330;28;20050;-74
2021/01/29 13:03:25;;;;;;;4.72;1.13;;;;;;;;;;4993872;28;20065;-73
2021/01/29 13:06:21;;;;;;;9.95;0.93;;;;;;;;;;5005763;28;20049;-73
2021/01/29 13:09:14;;;;;;;3.63;1.10;;;;;;;;;;4998069;28;20387;-72
2021/01/29 13:11:56;;;;;;;4.90;0.90;;;;;;;;;;5006080;28;20049;-76
2021/01/29 13:14:29;;;;;;;4.80;0.80;;;;;;;;;;5021719;28;20157;-72
2021/01/29 13:17:43;;;;;;;;;;;;;;;;;;;;;
2021/01/29 13:20:22;;;;;;;5.05;0.60;;;;;;;;;;5008609;28;20052;-74
2021/01/29 13:22:57;;;;;;;3.13;0.75;;;;;;;;;;5008332;28;20045;-72
2021/01/29 13:25:30;;;;;;;5.43;0.50;;;;;;;;;;4991351;28;20075;-72
2021/01/29 13:28:07;;;;;;;3.40;1.33;;;;;;;;;;4991306;28;20056;-73
2021/01/29 13:30:38;;;;;;;5.15;1.17;;;;;;;;;;5009240;28;20053;-74
2021/01/29 13:33:31;;;;;;;3.65;1.05;;;;;;;;;;5007681;28;20077;-73
2021/01/29 13:36:09;;;;;;;1.08;0.65;;;;;;;;;;5004927;28;20053;-73
2021/01/29 13:38:37;;;;;;;3.22;0.60;;;;;;;;;;4997618;28;20046;-73
2021/01/29 13:41:16;;;;;;;2.97;0.70;;;;;;;;;;5007548;28;20054;-71
2021/01/29 13:43:43;;;;;;;4.38;1.15;;;;;;;;;;5006486;28;20069;-71
2021/01/29 13:46:30;;;;;;;2.90;0.77;;;;;;;;;;5006560;28;20046;-72
2021/01/29 13:49:27;;;;;;;1.83;0.73;;;;;;;;;;5006465;28;20057;-72
2021/01/29 13:51:53;;;;;;;4.30;0.73;;;;;;;;;;5007643;28;20046;-70
2021/01/29 13:54:37;;;;;;;1.52;0.90;;;;;;;;;;5008044;28;20053;-70
2021/01/29 13:57:23;;;;;;;;;;;;;;;;;;5007198;28;20497;-70
2021/01/29 14:00:00;;;;;;;1.33;0.57;;;;;;;;;;5010045;28;19922;-70
2021/01/29 14:02:31;;;;;;;6.47;2.30;;;;;;;;;;4991742;28;20529;-70
2021/01/29 14:05:07;;;;;;;1.48;0.90;;;;;;;;;;5007364;28;20128;-73
2021/01/29 14:07:33;;;;;;;1.58;1.08;;;;;;;;;;5006765;28;20474;-72
2021/01/29 14:09:59;;;;;;;1.17;0.82;;;;;;;;;;5006456;28;20069;-72
2021/01/29 14:12:40;;;;;;;2.45;1.30;;;;;;;;;;4991139;28;20046;-70
2021/01/29 14:15:21;;;;;;;1.52;0.63;;;;;;;;;;5006822;28;20046;-75
2021/01/29 14:18:06;;;;;;;3.90;0.60;;;;;;;;;;4997296;28;20131;-70
2021/01/29 14:20:32;;;;;;;4.43;0.70;;;;;;;;;;5007740;28;20591;-73
2021/01/29 14:23:19;;;;;;;3.17;0.93;;;;;;;;;;5008609;28;20579;-75
2021/01/29 14:26:06;;;;;;;5.40;0.93;;;;;;;;;;5009455;28;20073;-74
2021/01/29 14:28:48;;;;;;;2.53;0.60;;;;;;;;;;5010695;28;20445;-71
2021/01/29 14:31:40;;;;;;;6.90;1.90;;;;;;;;;;5011811;28;20119;-71
2021/01/29 14:34:31;;;;;;;5.90;1.63;;;;;;;;;;5010195;28;20050;-74
2021/01/29 14:37:21;;;;;;;4.00;1.30;;;;;;;;;;5010677;28;20081;-73
2021/01/29 14:40:13;;;;;;;5.32;1.13;;;;;;;;;;5010553;28;20493;-73
2021/01/29 14:42:51;;;;;;;2.50;0.75;;;;;;;;;;5012985;28;20081;-74
2021/01/29 14:45:38;;;;;;;5.07;0.88;;;;;;;;;;5015124;28;20049;-71
2021/01/29 14:48:29;;;;;;;3.38;1.20;;;;;;;;;;5011958;28;20076;-72
2021/01/29 14:51:09;;;;;;;5.35;1.67;;;;;;;;;;5012045;28;20053;-73
2021/01/29 14:53:42;;;;;;;4.10;1.00;;;;;;;;;;5010828;28;20123;-71
2021/01/29 14:56:19;;;;;;;8.48;1.60;;;;;;;;;;4992556;28;20479;-76
2021/01/29 14:58:50;;;;;;;5.85;2.00;;;;;;;;;;5010312;28;20081;-72
2021/01/29 15:01:18;;;;;;;6.13;1.73;;;;;;;;;;4994229;28;20088;-72
2021/01/29 15:03:49;;;;;;;10.00;1.70;;;;;;;;;;5000922;28;20121;-70
2021/01/29 15:06:22;;;;;;;5.75;1.00;;;;;;;;;;5000198;28;20046;-70
2021/01/29 15:08:50;;;;;;;10.35;1.20;;;;;;;;;;5009298;28;20057;-70
2021/01/29 15:11:18;;;;;;;6.53;1.20;;;;;;;;;;4974994;28;20443;-71
2021/01/29 15:16:37;;;;;;;5.78;1.30;;;;;;;;;;4963790;26;20042;-74
2021/01/29 15:19:23;;;;;;;8.27;1.67;;;;;;;;;;5010750;28;20058;-73
2021/01/29 15:22:16;;;;;;;4.30;0.90;;;;;;;;;;5009574;28;20104;-73
2021/01/29 15:24:48;;;;;;;5.90;1.17;;;;;;;;;;4996800;28;20140;-70
2021/01/29 15:27:23;;;;;;;6.15;1.25;;;;;;;;;;5002095;28;20050;-70
2021/01/29 15:29:52;;;;;;;5.85;1.30;;;;;;;;;;4998987;28;20050;-72
2021/01/29 15:32:45;;;;;;;3.05;0.88;;;;;;;;;;4982965;28;20046;-68
2021/01/29 15:35:22;;;;;;;4.13;1.20;;;;;;;;;;4997105;28;20050;-72
2021/01/29 15:38:06;;;;;;;4.70;1.20;;;;;;;;;;4997925;28;20058;-71
2021/01/29 15:40:45;;;;;;;6.97;1.48;;;;;;;;;;4998461;28;20457;-77
2021/01/29 15:43:23;;;;;;;8.98;1.10;;;;;;;;;;4988289;28;20096;-76
2021/01/29 15:45:51;;;;;;;3.33;1.35;;;;;;;;;;4998426;28;20047;-76
2021/01/29 15:48:17;;;;;;;7.22;1.38;;;;;;;;;;4998954;28;20054;-73
2021/01/29 15:51:07;;;;;;;4.38;1.25;;;;;;;;;;4998757;28;20054;-71
2021/01/29 15:56:45;;;;;;;;;;;;;;;;;;;;;
2021/01/29 15:59:20;;;;;;;6.00;2.30;;;;;;;;;;5009782;28;20062;-72
2021/01/29 16:01:48;;;;;;;5.55;2.10;;;;;;;;;;5007850;28;20079;-75
2021/01/29 16:04:34;;;;;;;7.53;2.95;;;;;;;;;;4988660;28;20398;-75
2021/01/29 16:07:12;;;;;;;13.57;6.05;;;;;;;;;;4986965;28;20065;-74